createdAt,value
2022-10-19T00:01:37.302Z,8.07
2022-10-19T00:06:36.244Z,8.03
2022-10-19T00:11:30.551Z,7.93
2022-10-19T00:16:27.629Z,7.23
2022-10-19T00:21:21.328Z,7.30
2022-10-19T00:26:16.068Z,10.90
2022-10-19T00:31:11.782Z,8.10
2022-10-19T00:36:06.303Z,7.22
2022-10-19T00:40:59.625Z,7.18
2022-10-19T00:45:54.639Z,7.53
2022-10-19T00:50:49.183Z,7.68
2022-10-19T00:55:46.587Z,7.83
2022-10-19T01:00:39.918Z,7.60
2022-10-19T01:05:35.970Z,7.87
2022-10-19T01:10:47.324Z,8.00
2022-10-19T01:15:48.262Z,7.93
2022-10-19T01:21:20.256Z,7.33
2022-10-19T01:26:34.099Z,7.37
2022-10-19T01:31:38.165Z,7.97
2022-10-19T01:36:43.385Z,7.87
2022-10-19T01:41:47.317Z,8.20
2022-10-19T01:46:45.292Z,7.73
2022-10-19T01:51:43.688Z,7.97
2022-10-19T01:56:38.956Z,8.73
2022-10-19T02:01:35.908Z,8.70
2022-10-19T02:06:30.529Z,8.87
2022-10-19T02:11:25.191Z,8.70
2022-10-19T02:16:25.229Z,8.93
2022-10-19T02:21:19.459Z,8.20
2022-10-19T02:26:14.625Z,9.50
2022-10-19T02:31:10.213Z,8.23
2022-10-19T02:36:03.811Z,8.47
2022-10-19T02:41:11.046Z,8.97
2022-10-19T02:46:09.542Z,8.07
2022-10-19T02:51:02.826Z,9.47
2022-10-19T02:55:56.089Z,8.80
2022-10-19T03:00:49.390Z,9.60
2022-10-19T03:05:46.851Z,8.73
2022-10-19T03:10:40.049Z,9.47
2022-10-19T03:15:33.288Z,9.50
2022-10-19T03:20:26.413Z,9.77
2022-10-19T03:25:23.349Z,9.97
2022-10-19T03:30:18.513Z,11.37
2022-10-19T03:35:11.688Z,10.57
2022-10-19T03:40:05.611Z,11.20
2022-10-19T03:45:00.231Z,10.33
2022-10-19T03:49:56.359Z,9.00
2022-10-19T03:54:52.044Z,9.57
2022-10-19T03:59:45.427Z,10.20
2022-10-19T04:04:42.647Z,9.23
2022-10-19T04:09:38.734Z,9.23
2022-10-19T04:14:33.466Z,8.93
2022-10-19T04:19:33.198Z,9.43
2022-10-19T04:24:28.217Z,9.27
2022-10-19T04:29:26.302Z,13.27
2022-10-19T04:34:29.696Z,12.50
2022-10-19T04:39:22.895Z,11.10
2022-10-19T04:44:17.753Z,12.50
2022-10-19T04:49:11.075Z,11.00
2022-10-19T04:54:06.497Z,11.73
2022-10-19T04:59:01.202Z,12.10
2022-10-19T05:08:59.357Z,11.60
2022-10-19T05:13:52.655Z,12.10
2022-10-19T05:18:50.056Z,9.70
2022-10-19T05:23:44.715Z,12.00
2022-10-19T05:28:38.845Z,13.57
2022-10-19T05:33:32.171Z,11.50
2022-10-19T05:38:25.402Z,11.83
2022-10-19T05:43:19.972Z,12.60
2022-10-19T05:48:13.224Z,12.90
2022-10-19T05:53:06.586Z,11.38
2022-10-19T05:57:59.900Z,11.97
2022-10-19T06:02:58.972Z,12.40
2022-10-19T06:07:52.996Z,13.57
2022-10-19T06:12:46.286Z,12.38
2022-10-19T06:17:39.825Z,11.50
2022-10-19T06:22:34.562Z,11.35
2022-10-19T06:27:27.948Z,14.40
2022-10-19T06:32:21.597Z,16.33
2022-10-19T06:37:16.711Z,15.45
2022-10-19T06:42:11.481Z,13.68
2022-10-19T06:47:04.958Z,10.65
2022-10-19T06:52:02.282Z,10.45
2022-10-19T06:56:55.686Z,9.80
2022-10-19T07:01:52.552Z,9.20
2022-10-19T07:06:45.893Z,10.05
2022-10-19T07:11:43.579Z,9.25
2022-10-19T07:16:39.360Z,9.32
2022-10-19T07:21:35.970Z,10.55
2022-10-19T07:26:30.662Z,11.20
2022-10-19T07:31:25.235Z,11.00
2022-10-19T07:36:19.106Z,10.82
2022-10-19T07:41:15.809Z,10.23
2022-10-19T07:46:12.103Z,10.38
2022-10-19T07:51:10.024Z,9.00
2022-10-19T07:56:07.474Z,9.00
2022-10-19T08:01:06.835Z,7.07
2022-10-19T08:06:04.824Z,7.97
2022-10-19T08:11:00.140Z,7.63
2022-10-19T08:15:58.402Z,8.20
2022-10-19T08:20:56.424Z,8.52
2022-10-19T08:25:49.886Z,8.73
2022-10-19T08:30:46.675Z,9.57
2022-10-19T08:35:40.436Z,8.68
2022-10-19T08:40:35.202Z,8.15
2022-10-19T08:50:40.009Z,6.43
2022-10-19T08:55:45.649Z,6.55
2022-10-19T09:00:44.666Z,6.50
2022-10-19T09:05:46.123Z,6.85
2022-10-19T09:10:45.065Z,6.50
2022-10-19T09:15:41.949Z,7.10
2022-10-19T09:20:39.592Z,7.15
2022-10-19T09:25:37.034Z,7.20
2022-10-19T09:30:35.364Z,6.38
2022-10-19T09:35:31.834Z,6.70
2022-10-19T09:40:28.816Z,7.75
2022-10-19T09:45:35.413Z,8.15
2022-10-19T09:50:31.182Z,7.25
2022-10-19T09:55:31.059Z,8.15
2022-10-19T10:12:55.594Z,7.10
2022-10-19T10:17:50.622Z,6.57
2022-10-19T10:22:54.138Z,6.65
2022-10-19T10:27:59.702Z,6.47
2022-10-19T10:32:55.315Z,5.90
2022-10-19T10:37:49.371Z,5.68
2022-10-19T10:42:44.700Z,6.13
2022-10-19T10:47:40.591Z,8.15
2022-10-19T10:52:36.678Z,7.68
2022-10-19T10:57:39.074Z,8.90
2022-10-19T11:02:41.252Z,7.78
2022-10-19T11:07:37.228Z,7.28
2022-10-19T11:12:37.346Z,4.68
2022-10-19T11:17:36.606Z,4.57
2022-10-19T11:22:36.521Z,5.13
2022-10-19T11:27:43.141Z,4.65
2022-10-19T11:32:52.857Z,4.50
2022-10-19T11:38:18.781Z,4.70
2022-10-19T11:43:19.637Z,4.22
2022-10-19T11:48:31.497Z,4.53
2022-10-19T11:53:37.468Z,4.25
2022-10-19T11:58:43.607Z,3.65
2022-10-19T12:03:57.206Z,4.57
2022-10-19T12:09:06.021Z,4.55
2022-10-19T12:14:04.259Z,4.68
2022-10-19T12:19:00.529Z,4.18
2022-10-19T12:23:58.193Z,4.50
2022-10-19T12:28:56.764Z,4.55
2022-10-19T12:33:57.504Z,4.25
2022-10-19T12:39:02.440Z,4.28
2022-10-19T12:44:07.388Z,4.85
2022-10-19T12:49:38.715Z,4.20
2022-10-19T12:54:36.969Z,5.35
2022-10-19T12:59:32.605Z,4.40
2022-10-19T13:04:28.311Z,4.53
2022-10-19T13:09:25.896Z,4.47
2022-10-19T13:14:45.071Z,4.28
2022-10-19T13:19:38.242Z,4.47
2022-10-19T13:24:37.998Z,3.80
2022-10-19T13:29:42.974Z,3.92
2022-10-19T13:34:37.664Z,4.95
2022-10-19T13:39:31.482Z,4.70
2022-10-19T13:44:28.064Z,5.35
2022-10-19T13:49:36.541Z,4.38
2022-10-19T13:54:47.598Z,4.32
2022-10-19T14:00:03.743Z,4.93
2022-10-19T14:05:21.094Z,4.53
2022-10-19T14:10:18.044Z,4.90
2022-10-19T14:15:30.123Z,4.32
2022-10-19T14:20:30.730Z,4.55
2022-10-19T14:25:27.360Z,4.78
2022-10-19T14:30:24.830Z,5.60
2022-10-19T14:35:23.135Z,5.40
2022-10-19T14:40:29.305Z,5.43
2022-10-19T14:45:24.836Z,5.43
2022-10-19T14:50:18.711Z,5.50
2022-10-19T14:55:18.631Z,8.32
2022-10-19T15:00:19.298Z,6.72
2022-10-19T15:05:20.857Z,5.78
2022-10-19T15:10:24.970Z,6.28
2022-10-19T15:16:11.238Z,6.70
2022-10-19T15:21:29.443Z,6.57
2022-10-19T16:02:38.057Z,12.43
2022-10-19T16:08:11.703Z,12.68
2022-10-19T16:13:40.407Z,13.32
2022-10-19T16:18:47.706Z,11.67
2022-10-19T16:24:14.367Z,11.25
2022-10-19T16:35:55.771Z,10.73
2022-10-19T17:43:43.556Z,22.42
2022-10-19T17:48:54.373Z,33.08
2022-10-19T17:54:27.222Z,21.27
2022-10-19T17:59:52.671Z,17.40
2022-10-19T18:18:26.065Z,17.98
2022-10-19T18:37:10.157Z,41.95
2022-10-19T18:42:37.010Z,32.67
2022-10-19T19:07:33.072Z,20.67
2022-10-19T19:13:42.426Z,23.30
2022-10-19T19:19:47.714Z,23.50
2022-10-19T19:25:28.897Z,26.63
2022-10-19T19:36:58.598Z,23.98
2022-10-19T19:42:08.058Z,19.50
2022-10-19T19:47:08.777Z,16.95
2022-10-19T19:52:09.453Z,15.88
2022-10-19T19:57:07.942Z,12.23
2022-10-19T20:02:20.122Z,10.00
2022-10-19T20:07:52.018Z,10.38
2022-10-19T20:19:35.604Z,10.23
2022-10-19T20:25:00.709Z,10.30
2022-10-19T20:29:58.652Z,10.10
2022-10-19T20:34:56.681Z,10.52
2022-10-19T20:39:53.461Z,10.40
2022-10-19T20:44:55.100Z,11.95
2022-10-19T20:49:51.890Z,12.18
2022-10-19T20:54:46.772Z,9.57
2022-10-19T20:59:40.179Z,9.38
2022-10-19T21:04:34.003Z,9.38
2022-10-19T21:09:31.206Z,8.60
2022-10-19T21:14:28.583Z,9.65
2022-10-19T21:19:25.583Z,8.63
2022-10-19T21:24:20.997Z,8.13
2022-10-19T21:29:16.159Z,8.25
2022-10-19T21:34:14.471Z,8.02
2022-10-19T21:39:08.014Z,7.95
2022-10-19T21:49:54.619Z,7.35
2022-10-19T21:54:59.162Z,9.27
2022-10-19T21:59:56.989Z,7.57
2022-10-19T22:05:08.785Z,6.93
2022-10-19T22:10:42.413Z,6.47
2022-10-19T22:15:41.997Z,6.60
2022-10-19T22:20:40.997Z,7.00
2022-10-19T22:25:36.447Z,7.78
2022-10-19T22:30:29.980Z,8.05
2022-10-19T22:35:23.609Z,7.63
2022-10-19T22:40:18.629Z,7.03
2022-10-19T22:45:11.954Z,7.03
2022-10-19T22:50:06.830Z,5.53
2022-10-19T22:55:02.691Z,5.82
2022-10-19T23:00:00.282Z,5.53
2022-10-19T23:04:53.620Z,5.60
2022-10-19T23:09:50.563Z,5.43
2022-10-19T23:14:46.236Z,6.63
2022-10-19T23:19:41.062Z,7.63
2022-10-19T23:24:34.395Z,5.70
2022-10-19T23:29:27.662Z,7.82
2022-10-19T23:34:20.885Z,6.50
2022-10-19T23:39:15.496Z,9.98
2022-10-19T23:44:08.877Z,9.88
2022-10-19T23:49:02.350Z,9.45
2022-10-19T23:53:56.751Z,9.35
2022-10-19T23:58:54.445Z,8.85
